Time;durP1;ratioP1;P1;durP2;ratioP2;P2;SDS_P1;SDS_P2;PMS_P1;PMS_P2;Temp;Humidity;BMP_temperature;BMP_pressure;BME280_temperature;BME280_humidity;BME280_pressure;Samples;Min_cycle;Max_cycle;Signal;HPM_P1;HPM_P2
2020/12/12 00:00:49;;;;;;;5.73;3.87;;;;;;;;;;5058325;28;20025;-82
2020/12/12 00:03:14;;;;;;;10.37;3.60;;;;;;;;;;5076915;28;20025;-82
2020/12/12 00:05:40;;;;;;;6.23;3.40;;;;;;;;;;5060724;28;20028;-82
2020/12/12 00:08:05;;;;;;;5.60;2.97;;;;;;;;;;5062417;28;20048;-82
2020/12/12 00:10:30;;;;;;;6.05;3.40;;;;;;;;;;5075344;28;20020;-82
2020/12/12 00:12:55;;;;;;;7.53;3.67;;;;;;;;;;5059291;28;20460;-82
2020/12/12 00:15:21;;;;;;;6.47;3.17;;;;;;;;;;5057127;28;20028;-82
2020/12/12 00:17:46;;;;;;;5.05;3.58;;;;;;;;;;5063138;28;20017;-82
2020/12/12 00:20:12;;;;;;;5.93;3.53;;;;;;;;;;5059506;28;20120;-82
2020/12/12 00:22:37;;;;;;;7.13;4.00;;;;;;;;;;5064341;28;20028;-82
2020/12/12 00:25:03;;;;;;;4.80;3.40;;;;;;;;;;5060396;28;20020;-82
2020/12/12 00:27:28;;;;;;;5.83;3.23;;;;;;;;;;5058128;28;20032;-82
2020/12/12 00:29:53;;;;;;;4.93;3.15;;;;;;;;;;5067247;28;20025;-82
2020/12/12 00:32:19;;;;;;;9.38;3.22;;;;;;;;;;5053397;28;20040;-82
2020/12/12 00:34:44;;;;;;;7.22;3.58;;;;;;;;;;5091874;28;20069;-82
2020/12/12 00:37:09;;;;;;;10.70;3.60;;;;;;;;;;5072011;28;20095;-82
2020/12/12 00:39:34;;;;;;;7.63;3.28;;;;;;;;;;5058638;28;20031;-82
2020/12/12 00:41:59;;;;;;;7.97;3.28;;;;;;;;;;5058091;28;20023;-81
2020/12/12 00:44:25;;;;;;;7.13;3.40;;;;;;;;;;5076715;28;20029;-82
2020/12/12 00:46:50;;;;;;;8.00;3.53;;;;;;;;;;5053357;28;20082;-82
2020/12/12 00:49:15;;;;;;;7.73;3.53;;;;;;;;;;5058721;28;20028;-81
2020/12/12 00:51:40;;;;;;;5.83;3.67;;;;;;;;;;5059398;28;20056;-82
2020/12/12 00:54:06;;;;;;;5.93;3.60;;;;;;;;;;5059990;28;20016;-82
2020/12/12 00:56:32;;;;;;;4.77;3.27;;;;;;;;;;5060488;28;20021;-82
2020/12/12 00:58:57;;;;;;;6.80;4.10;;;;;;;;;;5077429;28;20012;-82
2020/12/12 01:01:22;;;;;;;5.43;3.30;;;;;;;;;;5059960;28;20020;-81
2020/12/12 01:03:47;;;;;;;7.47;3.83;;;;;;;;;;5061499;28;20082;-81
2020/12/12 01:06:13;;;;;;;5.43;3.63;;;;;;;;;;5061682;28;20528;-82
2020/12/12 01:08:39;;;;;;;4.20;3.00;;;;;;;;;;5052180;28;20025;-82
2020/12/12 01:11:05;;;;;;;6.30;3.73;;;;;;;;;;5060717;28;20025;-82
2020/12/12 01:13:30;;;;;;;7.97;3.93;;;;;;;;;;5067575;28;20028;-82
2020/12/12 01:15:56;;;;;;;5.13;3.50;;;;;;;;;;5063500;28;20013;-82
2020/12/12 01:18:21;;;;;;;5.07;3.33;;;;;;;;;;5060817;28;20048;-82
2020/12/12 01:20:46;;;;;;;7.00;4.00;;;;;;;;;;5055290;28;20017;-81
2020/12/12 01:23:11;;;;;;;5.50;3.70;;;;;;;;;;5062381;28;20024;-82
2020/12/12 01:25:37;;;;;;;5.00;3.50;;;;;;;;;;5066491;28;20028;-82
2020/12/12 01:28:04;;;;;;;7.83;3.60;;;;;;;;;;5062514;28;20024;-82
2020/12/12 01:30:29;;;;;;;6.40;3.37;;;;;;;;;;5053962;28;20082;-81
2020/12/12 01:32:54;;;;;;;7.53;3.60;;;;;;;;;;5074030;28;20129;-82
2020/12/12 01:35:19;;;;;;;5.30;3.23;;;;;;;;;;5058932;28;20017;-82
2020/12/12 01:37:45;;;;;;;5.00;3.33;;;;;;;;;;5057631;28;20017;-82
2020/12/12 01:40:11;;;;;;;7.87;3.30;;;;;;;;;;5055538;28;20058;-81
2020/12/12 01:42:36;;;;;;;6.20;2.87;;;;;;;;;;5057656;28;20808;-82
2020/12/12 01:45:02;;;;;;;6.13;3.33;;;;;;;;;;5062090;28;20428;-82
2020/12/12 01:47:28;;;;;;;7.43;3.30;;;;;;;;;;5063696;28;20024;-82
2020/12/12 01:49:53;;;;;;;5.27;3.23;;;;;;;;;;5053221;28;20427;-82
2020/12/12 01:52:19;;;;;;;5.63;3.30;;;;;;;;;;5061282;28;20016;-82
2020/12/12 01:54:48;;;;;;;4.70;3.20;;;;;;;;;;5063622;28;20074;-82
2020/12/12 01:57:17;;;;;;;6.03;3.90;;;;;;;;;;5060300;28;20099;-82
2020/12/12 01:59:42;;;;;;;5.40;3.20;;;;;;;;;;5062831;28;20099;-82
2020/12/12 02:02:10;;;;;;;6.07;3.63;;;;;;;;;;5057466;28;20480;-82
2020/12/12 02:04:37;;;;;;;7.03;3.73;;;;;;;;;;5080349;28;20029;-82
2020/12/12 02:07:02;;;;;;;7.23;4.00;;;;;;;;;;5065556;28;20475;-82
2020/12/12 02:09:27;;;;;;;6.00;3.40;;;;;;;;;;5064724;28;20031;-82
2020/12/12 02:11:52;;;;;;;5.63;3.50;;;;;;;;;;5062087;28;20699;-82
2020/12/12 02:14:18;;;;;;;11.13;3.73;;;;;;;;;;5056053;28;20017;-82
2020/12/12 02:17:02;;;;;;;7.50;3.30;;;;;;;;;;5105296;28;20141;-81
2020/12/12 02:19:27;;;;;;;7.57;3.53;;;;;;;;;;5064400;28;20016;-82
2020/12/12 02:21:56;;;;;;;6.87;4.10;;;;;;;;;;5076533;28;20040;-82
2020/12/12 02:24:22;;;;;;;6.60;3.90;;;;;;;;;;5061366;28;20024;-82
2020/12/12 02:26:47;;;;;;;7.07;4.23;;;;;;;;;;5057794;28;20491;-82
2020/12/12 02:29:12;;;;;;;7.03;4.10;;;;;;;;;;5058412;28;20052;-82
2020/12/12 02:31:38;;;;;;;9.07;4.10;;;;;;;;;;5065663;28;20422;-82
2020/12/12 02:34:04;;;;;;;8.40;4.47;;;;;;;;;;5076840;28;20391;-82
2020/12/12 02:36:32;;;;;;;9.67;3.97;;;;;;;;;;5075910;28;20020;-82
2020/12/12 02:38:58;;;;;;;11.57;4.23;;;;;;;;;;5057850;28;20029;-82
2020/12/12 02:41:23;;;;;;;8.00;4.10;;;;;;;;;;5062598;28;20051;-82
2020/12/12 02:43:48;;;;;;;7.53;3.93;;;;;;;;;;5078013;28;20020;-82
2020/12/12 02:46:13;;;;;;;7.53;4.07;;;;;;;;;;5060257;28;20483;-82
2020/12/12 02:48:38;;;;;;;7.37;3.90;;;;;;;;;;5057515;28;20049;-82
2020/12/12 02:51:03;;;;;;;10.20;4.27;;;;;;;;;;5065322;28;20020;-82
2020/12/12 02:53:29;;;;;;;7.43;4.17;;;;;;;;;;5070825;28;20067;-82
2020/12/12 02:55:54;;;;;;;11.00;4.33;;;;;;;;;;5058422;28;20025;-82
2020/12/12 02:58:19;;;;;;;7.97;4.40;;;;;;;;;;5062756;28;20013;-82
2020/12/12 03:00:44;;;;;;;7.47;4.40;;;;;;;;;;5058192;28;20112;-81
2020/12/12 03:03:09;;;;;;;10.33;4.07;;;;;;;;;;5065297;28;20024;-82
2020/12/12 03:05:35;;;;;;;6.27;3.63;;;;;;;;;;5072556;28;20020;-82
2020/12/12 03:08:00;;;;;;;9.77;3.67;;;;;;;;;;5059018;28;20030;-81
2020/12/12 03:10:25;;;;;;;5.60;3.50;;;;;;;;;;5060280;28;20028;-82
2020/12/12 03:12:50;;;;;;;8.43;4.00;;;;;;;;;;5059984;28;20028;-82
2020/12/12 03:15:15;;;;;;;11.13;3.73;;;;;;;;;;5060089;28;20388;-82
2020/12/12 03:17:41;;;;;;;9.27;4.47;;;;;;;;;;5065856;28;20052;-81
2020/12/12 03:20:06;;;;;;;11.27;4.83;;;;;;;;;;5060002;28;20118;-82
2020/12/12 03:22:31;;;;;;;8.03;4.20;;;;;;;;;;5054234;28;20047;-82
2020/12/12 03:24:57;;;;;;;8.10;4.03;;;;;;;;;;5061830;28;20032;-81
2020/12/12 03:27:22;;;;;;;10.03;4.33;;;;;;;;;;5067062;28;20024;-81
2020/12/12 03:29:47;;;;;;;10.57;4.83;;;;;;;;;;5057983;28;20028;-81
2020/12/12 03:32:12;;;;;;;9.80;4.27;;;;;;;;;;5064893;28;20106;-82
2020/12/12 03:34:38;;;;;;;10.10;5.00;;;;;;;;;;5064133;28;20021;-82
2020/12/12 03:37:05;;;;;;;17.50;5.47;;;;;;;;;;5071798;28;20020;-82
2020/12/12 03:39:30;;;;;;;15.47;5.23;;;;;;;;;;5052466;28;20028;-82
2020/12/12 03:41:55;;;;;;;10.63;5.17;;;;;;;;;;5061946;28;20017;-82
2020/12/12 03:44:20;;;;;;;21.80;5.90;;;;;;;;;;5061883;28;20025;-82
2020/12/12 03:46:46;;;;;;;10.63;5.13;;;;;;;;;;5074697;28;20073;-82
2020/12/12 03:49:11;;;;;;;13.80;5.10;;;;;;;;;;5061479;28;20028;-82
2020/12/12 03:51:36;;;;;;;12.07;5.53;;;;;;;;;;5055843;28;20095;-81
2020/12/12 03:54:01;;;;;;;12.27;5.70;;;;;;;;;;5062768;28;20024;-82
2020/12/12 03:56:26;;;;;;;12.50;6.23;;;;;;;;;;5086123;28;20071;-81
2020/12/12 03:58:52;;;;;;;17.13;6.23;;;;;;;;;;5093682;28;20482;-82
2020/12/12 04:01:17;;;;;;;18.73;6.40;;;;;;;;;;5053285;28;20033;-82
2020/12/12 04:03:42;;;;;;;17.00;6.43;;;;;;;;;;5057987;28;20016;-82
2020/12/12 04:06:07;;;;;;;23.30;6.97;;;;;;;;;;5079977;28;20028;-82
2020/12/12 04:08:32;;;;;;;22.20;6.60;;;;;;;;;;5076480;28;20043;-82
2020/12/12 04:11:00;;;;;;;20.83;6.83;;;;;;;;;;5063726;28;20070;-82
2020/12/12 04:13:25;;;;;;;20.43;6.90;;;;;;;;;;5059903;28;20396;-81
2020/12/12 04:15:50;;;;;;;24.83;7.23;;;;;;;;;;5063088;28;20027;-82
2020/12/12 04:18:15;;;;;;;20.77;7.00;;;;;;;;;;5072318;28;20020;-81
2020/12/12 04:20:41;;;;;;;19.43;7.20;;;;;;;;;;5067021;28;20119;-82
2020/12/12 04:23:06;;;;;;;22.77;7.93;;;;;;;;;;5056177;28;20663;-81
2020/12/12 04:25:31;;;;;;;17.97;7.60;;;;;;;;;;5056988;28;20027;-82
2020/12/12 04:27:56;;;;;;;22.87;8.23;;;;;;;;;;5067220;28;20027;-81
2020/12/12 04:30:21;;;;;;;21.00;8.43;;;;;;;;;;5061260;28;20103;-82
2020/12/12 04:32:47;;;;;;;23.90;8.57;;;;;;;;;;5053766;28;20017;-82
2020/12/12 04:35:12;;;;;;;24.10;9.07;;;;;;;;;;5060909;28;20016;-82
2020/12/12 04:37:37;;;;;;;30.13;9.30;;;;;;;;;;5075048;28;20008;-82
2020/12/12 04:40:03;;;;;;;26.33;8.77;;;;;;;;;;5063296;28;20391;-82
2020/12/12 04:42:30;;;;;;;23.93;8.83;;;;;;;;;;5053780;28;20052;-82
2020/12/12 04:44:55;;;;;;;27.97;8.83;;;;;;;;;;5062854;28;20098;-82
2020/12/12 04:47:23;;;;;;;31.93;8.80;;;;;;;;;;5063097;28;20103;-82
2020/12/12 04:49:48;;;;;;;21.83;8.17;;;;;;;;;;5060384;28;20456;-82
2020/12/12 04:52:14;;;;;;;23.73;7.80;;;;;;;;;;5061450;28;20048;-82
2020/12/12 04:54:39;;;;;;;25.88;7.95;;;;;;;;;;5067922;28;20055;-82
2020/12/12 04:57:05;;;;;;;27.57;8.60;;;;;;;;;;5060739;28;20044;-82
2020/12/12 04:59:31;;;;;;;19.55;7.80;;;;;;;;;;5070567;28;20020;-82
2020/12/12 05:02:00;;;;;;;20.40;7.63;;;;;;;;;;5060952;28;20461;-82
2020/12/12 05:04:25;;;;;;;18.73;7.80;;;;;;;;;;5061658;28;20021;-82
2020/12/12 05:06:51;;;;;;;20.13;7.25;;;;;;;;;;5061835;28;20536;-82
2020/12/12 05:09:16;;;;;;;22.33;7.13;;;;;;;;;;5061993;28;20028;-82
2020/12/12 05:11:43;;;;;;;18.73;7.57;;;;;;;;;;5054950;28;20074;-82
2020/12/12 05:14:09;;;;;;;23.15;7.43;;;;;;;;;;5077934;28;20103;-82
2020/12/12 05:16:34;;;;;;;18.97;7.80;;;;;;;;;;5054849;28;20028;-82
2020/12/12 05:19:01;;;;;;;23.00;8.10;;;;;;;;;;5057597;28;20016;-82
2020/12/12 05:21:26;;;;;;;21.37;7.17;;;;;;;;;;5071180;28;20459;-82
2020/12/12 05:23:52;;;;;;;20.90;6.40;;;;;;;;;;5057745;28;20009;-82
2020/12/12 05:26:17;;;;;;;19.73;6.80;;;;;;;;;;5067512;28;20067;-82
2020/12/12 05:28:44;;;;;;;17.67;7.45;;;;;;;;;;5079078;28;20028;-82
2020/12/12 05:31:10;;;;;;;20.40;6.47;;;;;;;;;;5061199;28;20021;-82
2020/12/12 05:33:35;;;;;;;17.67;7.47;;;;;;;;;;5065249;28;20024;-82
2020/12/12 05:36:00;;;;;;;18.93;7.80;;;;;;;;;;5054959;28;20017;-81
2020/12/12 05:38:25;;;;;;;26.43;7.67;;;;;;;;;;5063538;28;20100;-81
2020/12/12 05:40:53;;;;;;;19.33;6.80;;;;;;;;;;5075973;28;20029;-82
2020/12/12 05:43:18;;;;;;;18.70;6.67;;;;;;;;;;5065878;28;20446;-82
2020/12/12 05:45:43;;;;;;;21.70;6.90;;;;;;;;;;5064797;28;20119;-82
2020/12/12 05:48:09;;;;;;;22.77;7.20;;;;;;;;;;5069225;28;20027;-82
2020/12/12 05:50:34;;;;;;;20.98;7.55;;;;;;;;;;5066113;28;20031;-82
2020/12/12 05:53:00;;;;;;;25.08;8.10;;;;;;;;;;5067000;28;20074;-82
2020/12/12 05:55:29;;;;;;;24.35;7.90;;;;;;;;;;5064927;28;20020;-82
2020/12/12 05:57:54;;;;;;;22.63;8.07;;;;;;;;;;5072569;28;20021;-82
2020/12/12 06:00:24;;;;;;;23.70;8.30;;;;;;;;;;5060630;28;20360;-82
2020/12/12 06:02:54;;;;;;;33.40;9.10;;;;;;;;;;5066402;28;20035;-81
2020/12/12 06:05:26;;;;;;;18.30;7.57;;;;;;;;;;5077618;28;20028;-82
2020/12/12 06:07:52;;;;;;;22.73;8.27;;;;;;;;;;5071165;28;20057;-82
2020/12/12 06:10:18;;;;;;;28.27;9.67;;;;;;;;;;5063067;28;20033;-82
2020/12/12 06:12:43;;;;;;;29.17;9.60;;;;;;;;;;5066041;28;20361;-82
2020/12/12 06:15:11;;;;;;;36.23;9.50;;;;;;;;;;5063807;28;20027;-82
2020/12/12 06:17:45;;;;;;;26.13;10.00;;;;;;;;;;5067936;28;20043;-82
2020/12/12 06:20:12;;;;;;;24.43;8.57;;;;;;;;;;5055222;28;20025;-81
2020/12/12 06:22:39;;;;;;;27.47;9.57;;;;;;;;;;5080520;28;20035;-81
2020/12/12 06:25:04;;;;;;;31.57;9.57;;;;;;;;;;5058485;28;20474;-81
2020/12/12 06:27:37;;;;;;;29.10;10.10;;;;;;;;;;5064902;28;20032;-82
2020/12/12 06:30:04;;;;;;;37.83;11.03;;;;;;;;;;5056123;28;20993;-82
2020/12/12 06:32:29;;;;;;;32.33;10.13;;;;;;;;;;5058295;28;20017;-81
2020/12/12 06:34:54;;;;;;;32.73;10.13;;;;;;;;;;5056037;28;20118;-82
2020/12/12 06:37:32;;;;;;;52.87;21.47;;;;;;;;;;5060032;28;20013;-81
2020/12/12 06:39:58;;;;;;;67.93;24.67;;;;;;;;;;5065745;28;20098;-81
2020/12/12 06:42:28;;;;;;;52.00;14.90;;;;;;;;;;5060620;28;20468;-81
2020/12/12 06:44:53;;;;;;;45.33;12.80;;;;;;;;;;5063592;28;20028;-81
2020/12/12 06:47:33;;;;;;;53.43;13.83;;;;;;;;;;5063236;28;20494;-81
2020/12/12 06:50:05;;;;;;;43.57;13.27;;;;;;;;;;5069952;28;20039;-81
2020/12/12 06:52:31;;;;;;;49.23;14.43;;;;;;;;;;5066084;28;20028;-81
2020/12/12 06:55:16;;;;;;;44.07;13.80;;;;;;;;;;5058810;28;20031;-81
2020/12/12 06:57:42;;;;;;;43.30;12.60;;;;;;;;;;5066575;28;20058;-81
2020/12/12 07:00:17;;;;;;;43.40;12.67;;;;;;;;;;5063443;28;20035;-81
2020/12/12 07:02:55;;;;;;;42.37;13.30;;;;;;;;;;5059792;28;20047;-81
2020/12/12 07:05:22;;;;;;;40.77;12.60;;;;;;;;;;5072262;28;20032;-81
2020/12/12 07:07:47;;;;;;;42.33;12.27;;;;;;;;;;5065418;28;20032;-81
2020/12/12 07:10:12;;;;;;;43.60;12.57;;;;;;;;;;5075103;28;20445;-81
2020/12/12 07:12:38;;;;;;;39.93;12.70;;;;;;;;;;5065347;28;20086;-81
2020/12/12 07:15:04;;;;;;;45.20;13.43;;;;;;;;;;5069251;28;20024;-81
2020/12/12 07:17:29;;;;;;;46.27;12.97;;;;;;;;;;5065911;28;20016;-81
2020/12/12 07:19:54;;;;;;;38.67;12.47;;;;;;;;;;5068149;28;20009;-81
2020/12/12 07:22:20;;;;;;;38.20;13.43;;;;;;;;;;5069063;28;20114;-81
2020/12/12 07:24:45;;;;;;;38.37;12.83;;;;;;;;;;5063429;28;20419;-81
2020/12/12 07:27:11;;;;;;;35.53;12.23;;;;;;;;;;5063023;28;20488;-81
2020/12/12 07:29:36;;;;;;;46.33;12.43;;;;;;;;;;5064846;28;20028;-82
2020/12/12 07:32:02;;;;;;;39.77;12.97;;;;;;;;;;5060155;28;20453;-85
2020/12/12 07:34:27;;;;;;;44.80;12.50;;;;;;;;;;5058580;28;20028;-82
2020/12/12 07:37:06;;;;;;;48.77;12.70;;;;;;;;;;5065631;28;20013;-81
2020/12/12 07:39:37;;;;;;;40.53;11.70;;;;;;;;;;5069510;28;20035;-81
2020/12/12 07:42:03;;;;;;;45.63;12.87;;;;;;;;;;5059790;28;20058;-81
2020/12/12 07:44:31;;;;;;;39.57;12.63;;;;;;;;;;5070544;28;20383;-81
2020/12/12 07:47:14;;;;;;;48.23;12.60;;;;;;;;;;5063647;28;20203;-81
2020/12/12 07:49:39;;;;;;;39.47;12.23;;;;;;;;;;5060768;28;20030;-81
2020/12/12 07:52:09;;;;;;;42.10;11.63;;;;;;;;;;5066697;28;20752;-80
2020/12/12 07:54:37;;;;;;;36.67;11.10;;;;;;;;;;5062015;28;20086;-81
2020/12/12 07:57:03;;;;;;;53.40;12.87;;;;;;;;;;5066140;28;20486;-81
2020/12/12 07:59:29;;;;;;;38.63;11.97;;;;;;;;;;5057309;28;20020;-81
2020/12/12 08:01:59;;;;;;;47.10;11.37;;;;;;;;;;5054505;28;20032;-80
2020/12/12 08:04:24;;;;;;;45.57;12.20;;;;;;;;;;5076237;28;20024;-79
2020/12/12 08:06:50;;;;;;;47.37;12.70;;;;;;;;;;5062668;28;20032;-79
2020/12/12 08:09:23;;;;;;;41.20;11.93;;;;;;;;;;5071580;28;20062;-79
2020/12/12 08:11:55;;;;;;;43.58;11.98;;;;;;;;;;5061185;28;20013;-80
2020/12/12 08:14:20;;;;;;;45.72;12.40;;;;;;;;;;5064511;28;20016;-79
2020/12/12 08:16:47;;;;;;;39.43;12.47;;;;;;;;;;5063203;28;20039;-79
2020/12/12 08:19:12;;;;;;;47.40;12.20;;;;;;;;;;5065846;28;20024;-79
2020/12/12 08:21:38;;;;;;;37.03;11.70;;;;;;;;;;5073861;28;20028;-80
2020/12/12 08:24:06;;;;;;;33.93;10.87;;;;;;;;;;5068988;28;20027;-80
2020/12/12 08:26:33;;;;;;;45.93;13.57;;;;;;;;;;5071688;28;20027;-79
2020/12/12 08:29:00;;;;;;;51.57;14.00;;;;;;;;;;5067302;28;20052;-80
2020/12/12 08:31:27;;;;;;;45.37;13.30;;;;;;;;;;5066311;28;20024;-80
2020/12/12 08:33:53;;;;;;;48.47;13.23;;;;;;;;;;5067971;28;20400;-79
2020/12/12 08:36:29;;;;;;;44.37;13.13;;;;;;;;;;5069630;28;20103;-79
2020/12/12 08:39:12;;;;;;;40.67;11.97;;;;;;;;;;5073361;28;20052;-78
2020/12/12 08:41:39;;;;;;;38.20;12.70;;;;;;;;;;5068130;28;20080;-78
2020/12/12 08:44:05;;;;;;;44.77;12.87;;;;;;;;;;5071154;28;20039;-79
2020/12/12 08:46:30;;;;;;;41.47;12.60;;;;;;;;;;5061164;28;20025;-80
2020/12/12 08:48:56;;;;;;;39.77;12.27;;;;;;;;;;5066117;28;20586;-80
2020/12/12 08:51:26;;;;;;;39.23;13.40;;;;;;;;;;5064503;28;20379;-80
2020/12/12 08:53:52;;;;;;;46.87;12.77;;;;;;;;;;5057548;28;20549;-80
2020/12/12 08:56:20;;;;;;;41.70;12.37;;;;;;;;;;5061342;28;20048;-79
2020/12/12 08:58:46;;;;;;;51.27;13.10;;;;;;;;;;5062544;28;20024;-79
2020/12/12 09:01:21;;;;;;;40.57;12.20;;;;;;;;;;5057649;28;20075;-79
2020/12/12 09:03:53;;;;;;;42.73;11.57;;;;;;;;;;5062226;28;20107;-79
2020/12/12 09:06:18;;;;;;;39.22;11.52;;;;;;;;;;5063505;28;20029;-79
2020/12/12 09:08:44;;;;;;;41.67;12.83;;;;;;;;;;5062395;28;20505;-79
2020/12/12 09:11:13;;;;;;;41.83;12.10;;;;;;;;;;5061246;28;20028;-79
2020/12/12 09:13:38;;;;;;;34.87;11.83;;;;;;;;;;5061120;28;20021;-79
2020/12/12 09:16:04;;;;;;;35.60;13.00;;;;;;;;;;5062586;28;20020;-79
2020/12/12 09:18:29;;;;;;;38.40;11.90;;;;;;;;;;5066878;28;20408;-79
2020/12/12 09:20:54;;;;;;;41.03;11.90;;;;;;;;;;5060127;28;20016;-79
2020/12/12 09:23:20;;;;;;;45.93;14.13;;;;;;;;;;5064843;28;20476;-80
2020/12/12 09:25:45;;;;;;;43.50;12.67;;;;;;;;;;5073104;28;20032;-79
2020/12/12 09:28:10;;;;;;;43.87;13.33;;;;;;;;;;5062948;28;20111;-79
2020/12/12 09:30:35;;;;;;;48.33;13.43;;;;;;;;;;5060830;28;20029;-80
2020/12/12 09:33:00;;;;;;;42.47;12.80;;;;;;;;;;5068659;28;20433;-79
2020/12/12 09:35:26;;;;;;;48.43;14.67;;;;;;;;;;5061270;28;20028;-79
2020/12/12 09:37:51;;;;;;;56.30;14.67;;;;;;;;;;5065267;28;20448;-79
2020/12/12 09:40:19;;;;;;;65.00;17.77;;;;;;;;;;5072697;28;20047;-79
2020/12/12 09:42:44;;;;;;;41.47;13.77;;;;;;;;;;5055582;28;20378;-79
2020/12/12 09:45:09;;;;;;;47.57;13.70;;;;;;;;;;5065784;28;20012;-79
2020/12/12 09:47:34;;;;;;;52.97;14.47;;;;;;;;;;5053268;28;20025;-79
2020/12/12 09:50:00;;;;;;;53.77;15.27;;;;;;;;;;5056805;28;20017;-80
2020/12/12 09:52:27;;;;;;;43.93;15.53;;;;;;;;;;5068612;28;20025;-80
2020/12/12 09:54:53;;;;;;;70.00;20.37;;;;;;;;;;5059462;28;20021;-80
2020/12/12 09:57:18;;;;;;;49.03;15.30;;;;;;;;;;5060614;28;20368;-79
2020/12/12 09:59:43;;;;;;;51.03;15.53;;;;;;;;;;5063211;28;20052;-79
2020/12/12 10:02:08;;;;;;;49.90;15.70;;;;;;;;;;5066686;28;20043;-80
2020/12/12 10:04:33;;;;;;;49.83;16.07;;;;;;;;;;5064746;28;20029;-80
2020/12/12 10:06:58;;;;;;;65.63;18.80;;;;;;;;;;5060660;28;20024;-80
2020/12/12 10:09:24;;;;;;;52.50;16.83;;;;;;;;;;5065547;28;20029;-80
2020/12/12 10:11:49;;;;;;;59.43;16.73;;;;;;;;;;5065083;28;20019;-80
2020/12/12 10:14:15;;;;;;;63.67;18.37;;;;;;;;;;5071655;28;20048;-80
2020/12/12 10:16:40;;;;;;;53.93;16.87;;;;;;;;;;5062880;28;20021;-80
2020/12/12 10:19:05;;;;;;;52.00;16.57;;;;;;;;;;5066734;28;20085;-80
2020/12/12 10:21:30;;;;;;;50.97;16.50;;;;;;;;;;5074597;28;20099;-80
2020/12/12 10:23:55;;;;;;;59.73;19.07;;;;;;;;;;5065434;28;20033;-80
2020/12/12 10:26:21;;;;;;;56.20;17.87;;;;;;;;;;5070421;28;20395;-80
2020/12/12 10:28:46;;;;;;;56.13;19.33;;;;;;;;;;5072585;28;20037;-80
2020/12/12 10:31:11;;;;;;;45.23;15.40;;;;;;;;;;5073817;28;20021;-80
2020/12/12 10:33:36;;;;;;;48.27;17.37;;;;;;;;;;5064782;28;20466;-80
2020/12/12 10:36:01;;;;;;;53.97;17.83;;;;;;;;;;5075730;28;20020;-79
2020/12/12 10:38:27;;;;;;;56.07;15.83;;;;;;;;;;5066287;28;20032;-79
2020/12/12 10:41:10;;;;;;;49.93;17.10;;;;;;;;;;5062990;28;20078;-79
2020/12/12 10:43:36;;;;;;;50.60;17.80;;;;;;;;;;5064320;28;20028;-80
2020/12/12 10:46:02;;;;;;;54.53;18.53;;;;;;;;;;5075342;28;20039;-79
2020/12/12 10:48:27;;;;;;;63.33;18.87;;;;;;;;;;5066443;28;20020;-80
2020/12/12 10:50:52;;;;;;;62.70;19.10;;;;;;;;;;5056477;28;20043;-79
2020/12/12 10:53:17;;;;;;;60.93;19.87;;;;;;;;;;5067707;28;20012;-79
2020/12/12 10:55:43;;;;;;;57.50;20.20;;;;;;;;;;5065119;28;20020;-79
2020/12/12 10:58:08;;;;;;;56.83;18.40;;;;;;;;;;5071860;28;20050;-80
2020/12/12 11:00:40;;;;;;;57.57;18.33;;;;;;;;;;5080063;28;20024;-79
2020/12/12 11:03:07;;;;;;;62.33;21.40;;;;;;;;;;5062243;28;20087;-79
2020/12/12 11:05:32;;;;;;;65.37;20.10;;;;;;;;;;5063429;28;20055;-79
2020/12/12 11:07:57;;;;;;;64.83;21.47;;;;;;;;;;5059845;28;20037;-80
2020/12/12 11:10:22;;;;;;;65.83;21.10;;;;;;;;;;5063952;28;20021;-80
2020/12/12 11:12:49;;;;;;;74.80;21.53;;;;;;;;;;5070735;28;20070;-80
2020/12/12 11:15:15;;;;;;;66.50;21.97;;;;;;;;;;5064054;28;20021;-79
2020/12/12 11:17:40;;;;;;;64.60;20.97;;;;;;;;;;5069850;28;20016;-79
2020/12/12 11:20:05;;;;;;;70.93;20.83;;;;;;;;;;5066313;28;20023;-79
2020/12/12 11:22:30;;;;;;;66.83;21.10;;;;;;;;;;5065547;28;20591;-79
2020/12/12 11:24:55;;;;;;;78.83;24.13;;;;;;;;;;5061551;28;20025;-80
2020/12/12 11:27:21;;;;;;;66.60;21.17;;;;;;;;;;5071914;28;20461;-79
2020/12/12 11:29:46;;;;;;;66.70;21.23;;;;;;;;;;5069308;28;20013;-79
2020/12/12 11:32:12;;;;;;;67.33;20.53;;;;;;;;;;5068656;28;20039;-79
2020/12/12 11:34:41;;;;;;;71.20;21.70;;;;;;;;;;5076727;28;20024;-80
2020/12/12 11:42:13;;;;;;;68.83;21.17;;;;;;;;;;5080804;28;20021;-79
2020/12/12 11:45:06;;;;;;;66.88;22.48;;;;;;;;;;5061380;28;20096;-79
2020/12/12 11:47:32;;;;;;;;;;;;;;;;;;5061968;28;20028;-79
2020/12/12 11:49:57;;;;;;;77.13;22.53;;;;;;;;;;5057851;28;19935;-79
2020/12/12 11:52:22;;;;;;;67.00;21.13;;;;;;;;;;5062830;28;20387;-79
2020/12/12 11:54:48;;;;;;;68.37;21.50;;;;;;;;;;5060672;28;20020;-79
2020/12/12 11:57:13;;;;;;;68.83;23.10;;;;;;;;;;5063158;28;20059;-80
2020/12/12 11:59:38;;;;;;;62.17;20.87;;;;;;;;;;5056746;28;20400;-80
2020/12/12 12:02:04;;;;;;;78.40;23.70;;;;;;;;;;5058648;28;20410;-80
2020/12/12 12:04:29;;;;;;;67.83;22.13;;;;;;;;;;5069144;28;20025;-80
2020/12/12 12:06:56;;;;;;;74.57;21.90;;;;;;;;;;5061554;28;20028;-80
2020/12/12 12:09:29;;;;;;;74.17;23.83;;;;;;;;;;5060291;28;20017;-80
2020/12/12 12:11:54;;;;;;;72.40;22.58;;;;;;;;;;5054447;28;20104;-79
2020/12/12 12:14:19;;;;;;;60.33;21.20;;;;;;;;;;5065960;28;20107;-79
2020/12/12 12:16:44;;;;;;;70.05;20.73;;;;;;;;;;5073817;28;20017;-79
2020/12/12 12:19:11;;;;;;;70.30;22.97;;;;;;;;;;5061640;28;20036;-79
2020/12/12 12:21:36;;;;;;;65.35;20.80;;;;;;;;;;5056162;28;20025;-79
2020/12/12 12:24:05;;;;;;;71.60;21.67;;;;;;;;;;5059300;28;20030;-80
2020/12/12 12:26:34;;;;;;;73.13;23.70;;;;;;;;;;5068540;28;20028;-79
2020/12/12 12:28:59;;;;;;;71.43;21.40;;;;;;;;;;5068071;28;20021;-79
2020/12/12 12:31:25;;;;;;;65.23;20.93;;;;;;;;;;5077084;28;20100;-80
2020/12/12 12:33:50;;;;;;;68.40;20.33;;;;;;;;;;5068958;28;20024;-80
2020/12/12 12:36:15;;;;;;;73.80;22.23;;;;;;;;;;5060826;28;20464;-80
2020/12/12 12:38:41;;;;;;;67.27;20.60;;;;;;;;;;5065771;28;20020;-80
2020/12/12 12:41:06;;;;;;;68.75;21.65;;;;;;;;;;5062115;28;20049;-79
2020/12/12 12:43:31;;;;;;;62.27;22.47;;;;;;;;;;5059820;28;20027;-80
2020/12/12 12:45:57;;;;;;;73.95;21.65;;;;;;;;;;5057275;28;20025;-79
2020/12/12 12:48:22;;;;;;;74.27;24.47;;;;;;;;;;5054767;28;20559;-79
2020/12/12 12:50:47;;;;;;;66.67;23.37;;;;;;;;;;5056575;28;20016;-80
2020/12/12 12:53:12;;;;;;;74.03;23.17;;;;;;;;;;5051986;28;20028;-80
2020/12/12 12:55:38;;;;;;;75.95;24.20;;;;;;;;;;5058333;28;21307;-79
2020/12/12 12:58:05;;;;;;;70.30;23.20;;;;;;;;;;5055021;28;20048;-79
2020/12/12 13:00:31;;;;;;;60.80;22.77;;;;;;;;;;5053608;28;20033;-80
2020/12/12 13:02:56;;;;;;;68.20;22.27;;;;;;;;;;5066928;28;20054;-79
2020/12/12 13:05:22;;;;;;;63.73;21.53;;;;;;;;;;5056419;28;20036;-80
2020/12/12 13:07:47;;;;;;;69.20;22.83;;;;;;;;;;5053534;28;20032;-80
2020/12/12 13:10:12;;;;;;;69.75;24.15;;;;;;;;;;5056758;28;20048;-79
2020/12/12 13:12:38;;;;;;;75.17;24.53;;;;;;;;;;5053433;28;20028;-79
2020/12/12 13:15:03;;;;;;;65.20;22.20;;;;;;;;;;5056052;28;20040;-80
2020/12/12 13:17:28;;;;;;;67.00;21.23;;;;;;;;;;5064497;28;20461;-79
2020/12/12 13:20:04;;;;;;;55.67;20.60;;;;;;;;;;5069403;28;20039;-79
2020/12/12 13:22:30;;;;;;;68.90;23.10;;;;;;;;;;5060252;28;20024;-78
2020/12/12 13:24:55;;;;;;;64.27;22.20;;;;;;;;;;5065955;28;20108;-79
2020/12/12 13:27:20;;;;;;;61.77;20.60;;;;;;;;;;5063192;28;20464;-80
2020/12/12 13:30:13;;;;;;;65.87;21.77;;;;;;;;;;5063048;28;20025;-78
2020/12/12 13:32:30;;;;;;;67.33;25.73;;;;;;;;;;5070899;28;20020;-79
2020/12/12 13:34:56;;;;;;;59.23;22.30;;;;;;;;;;5059056;28;20088;-79
2020/12/12 13:37:21;;;;;;;63.70;22.43;;;;;;;;;;5059893;28;20534;-79
2020/12/12 13:39:46;;;;;;;64.20;22.73;;;;;;;;;;5074904;28;20027;-79
2020/12/12 13:42:20;;;;;;;57.40;21.33;;;;;;;;;;5061926;28;20031;-79
2020/12/12 13:44:45;;;;;;;61.07;19.97;;;;;;;;;;5056716;28;20071;-79
2020/12/12 13:47:11;;;;;;;61.57;20.10;;;;;;;;;;5065525;28;20025;-78
2020/12/12 13:49:37;;;;;;;60.00;20.95;;;;;;;;;;5078084;28;20032;-79
2020/12/12 13:52:03;;;;;;;64.17;22.43;;;;;;;;;;5067340;28;20044;-79
2020/12/12 13:54:29;;;;;;;60.70;21.37;;;;;;;;;;5057916;28;20453;-79
2020/12/12 13:56:54;;;;;;;51.97;19.08;;;;;;;;;;5059853;28;20070;-79
2020/12/12 13:59:19;;;;;;;64.43;21.48;;;;;;;;;;5060151;28;20028;-79
2020/12/12 14:01:48;;;;;;;59.95;21.58;;;;;;;;;;5066430;28;20055;-79
2020/12/12 14:04:13;;;;;;;61.57;23.40;;;;;;;;;;5063368;28;20066;-79
2020/12/12 14:06:39;;;;;;;67.77;21.03;;;;;;;;;;5070837;28;20039;-79
2020/12/12 14:25:07;;;;;;;61.10;23.37;;;;;;;;;;5063384;28;20028;-79
2020/12/12 14:30:17;;;;;;;66.90;21.53;;;;;;;;;;5068566;28;20024;-79
2020/12/12 14:32:42;;;;;;;60.05;22.13;;;;;;;;;;5072357;28;20476;-79
2020/12/12 14:35:07;;;;;;;68.47;21.80;;;;;;;;;;5063966;28;20150;-78
2020/12/12 14:37:33;;;;;;;58.72;21.60;;;;;;;;;;5059197;28;20079;-79
2020/12/12 14:39:58;;;;;;;62.28;22.42;;;;;;;;;;5064099;28;20073;-79
2020/12/12 14:42:28;;;;;;;62.53;23.50;;;;;;;;;;5061512;28;20027;-79
2020/12/12 14:44:53;;;;;;;66.28;23.83;;;;;;;;;;5061992;28;20021;-79